sensor_id;sensor_type;location;lat;lon;timestamp;P1;durP1;ratioP1;P2;durP2;ratioP2
21999;SDS011;11164;48.818;2.322;2022-08-05T00:01:12;8.18;;;3.80;;
21999;SDS011;11164;48.818;2.322;2022-08-05T00:03:45;10.65;;;4.45;;
21999;SDS011;11164;48.818;2.322;2022-08-05T00:06:11;11.18;;;4.20;;
21999;SDS011;11164;48.818;2.322;2022-08-05T00:08:40;13.35;;;4.18;;
21999;SDS011;11164;48.818;2.322;2022-08-05T00:11:10;8.43;;;3.70;;
21999;SDS011;11164;48.818;2.322;2022-08-05T00:13:39;13.20;;;4.10;;
21999;SDS011;11164;48.818;2.322;2022-08-05T00:16:11;9.25;;;3.25;;
21999;SDS011;11164;48.818;2.322;2022-08-05T00:18:43;11.68;;;3.88;;
21999;SDS011;11164;48.818;2.322;2022-08-05T00:21:10;9.52;;;4.22;;
21999;SDS011;11164;48.818;2.322;2022-08-05T00:23:36;10.07;;;4.55;;
21999;SDS011;11164;48.818;2.322;2022-08-05T00:26:02;11.93;;;4.75;;
21999;SDS011;11164;48.818;2.322;2022-08-05T00:28:28;11.40;;;4.15;;
21999;SDS011;11164;48.818;2.322;2022-08-05T00:30:54;9.20;;;3.90;;
21999;SDS011;11164;48.818;2.322;2022-08-05T00:33:19;11.70;;;4.10;;
21999;SDS011;11164;48.818;2.322;2022-08-05T00:35:44;7.57;;;3.92;;
21999;SDS011;11164;48.818;2.322;2022-08-05T00:38:10;8.90;;;3.80;;
21999;SDS011;11164;48.818;2.322;2022-08-05T00:40:44;10.10;;;3.58;;
21999;SDS011;11164;48.818;2.322;2022-08-05T00:43:12;6.90;;;2.95;;
21999;SDS011;11164;48.818;2.322;2022-08-05T00:45:37;7.97;;;3.25;;
21999;SDS011;11164;48.818;2.322;2022-08-05T00:48:03;9.95;;;3.20;;
21999;SDS011;11164;48.818;2.322;2022-08-05T00:50:28;8.30;;;3.10;;
21999;SDS011;11164;48.818;2.322;2022-08-05T00:52:54;10.80;;;3.92;;
21999;SDS011;11164;48.818;2.322;2022-08-05T00:55:19;10.75;;;3.85;;
21999;SDS011;11164;48.818;2.322;2022-08-05T00:57:45;11.32;;;3.80;;
21999;SDS011;11164;48.818;2.322;2022-08-05T01:00:13;8.57;;;3.70;;
21999;SDS011;11164;48.818;2.322;2022-08-05T01:02:39;7.43;;;3.10;;
21999;SDS011;11164;48.818;2.322;2022-08-05T01:05:04;8.15;;;3.15;;
21999;SDS011;11164;48.818;2.322;2022-08-05T01:07:30;8.77;;;3.10;;
21999;SDS011;11164;48.818;2.322;2022-08-05T01:09:55;6.75;;;3.20;;
21999;SDS011;11164;48.818;2.322;2022-08-05T01:12:21;6.90;;;3.05;;
21999;SDS011;11164;48.818;2.322;2022-08-05T01:15:02;6.40;;;2.75;;
21999;SDS011;11164;48.818;2.322;2022-08-05T01:17:31;7.22;;;3.05;;
21999;SDS011;11164;48.818;2.322;2022-08-05T01:20:05;9.93;;;3.15;;
21999;SDS011;11164;48.818;2.322;2022-08-05T01:30:56;8.35;;;3.25;;
21999;SDS011;11164;48.818;2.322;2022-08-05T01:33:27;9.98;;;3.80;;
21999;SDS011;11164;48.818;2.322;2022-08-05T01:36:00;7.75;;;3.53;;
21999;SDS011;11164;48.818;2.322;2022-08-05T01:38:30;11.52;;;3.72;;
21999;SDS011;11164;48.818;2.322;2022-08-05T01:40:58;10.25;;;3.33;;
21999;SDS011;11164;48.818;2.322;2022-08-05T01:43:26;10.45;;;3.70;;
21999;SDS011;11164;48.818;2.322;2022-08-05T01:45:52;8.93;;;3.28;;
21999;SDS011;11164;48.818;2.322;2022-08-05T01:48:19;9.82;;;3.45;;
21999;SDS011;11164;48.818;2.322;2022-08-05T01:50:46;9.73;;;3.53;;
21999;SDS011;11164;48.818;2.322;2022-08-05T01:53:14;6.85;;;3.10;;
21999;SDS011;11164;48.818;2.322;2022-08-05T01:55:41;9.98;;;3.67;;
21999;SDS011;11164;48.818;2.322;2022-08-05T01:58:10;7.50;;;3.30;;
21999;SDS011;11164;48.818;2.322;2022-08-05T02:00:39;34.95;;;4.95;;
21999;SDS011;11164;48.818;2.322;2022-08-05T02:03:11;13.00;;;3.78;;
21999;SDS011;11164;48.818;2.322;2022-08-05T02:05:42;14.05;;;4.78;;
21999;SDS011;11164;48.818;2.322;2022-08-05T02:08:09;10.77;;;4.63;;
21999;SDS011;11164;48.818;2.322;2022-08-05T02:10:36;8.77;;;4.10;;
21999;SDS011;11164;48.818;2.322;2022-08-05T02:13:13;16.05;;;5.57;;
21999;SDS011;11164;48.818;2.322;2022-08-05T02:15:53;10.23;;;5.40;;
21999;SDS011;11164;48.818;2.322;2022-08-05T02:18:29;11.23;;;4.75;;
21999;SDS011;11164;48.818;2.322;2022-08-05T02:21:04;9.90;;;4.32;;
21999;SDS011;11164;48.818;2.322;2022-08-05T02:23:36;9.32;;;4.00;;
21999;SDS011;11164;48.818;2.322;2022-08-05T02:26:05;14.75;;;5.22;;
21999;SDS011;11164;48.818;2.322;2022-08-05T02:28:35;10.13;;;4.75;;
21999;SDS011;11164;48.818;2.322;2022-08-05T02:31:10;11.73;;;4.57;;
21999;SDS011;11164;48.818;2.322;2022-08-05T02:33:51;10.18;;;4.93;;
21999;SDS011;11164;48.818;2.322;2022-08-05T02:36:21;12.20;;;5.00;;
21999;SDS011;11164;48.818;2.322;2022-08-05T02:38:49;12.20;;;5.10;;
21999;SDS011;11164;48.818;2.322;2022-08-05T02:41:18;7.32;;;4.18;;
21999;SDS011;11164;48.818;2.322;2022-08-05T02:43:46;9.80;;;4.70;;
21999;SDS011;11164;48.818;2.322;2022-08-05T02:46:16;11.90;;;4.57;;
21999;SDS011;11164;48.818;2.322;2022-08-05T02:48:42;10.70;;;4.88;;
21999;SDS011;11164;48.818;2.322;2022-08-05T02:51:09;9.43;;;4.90;;
21999;SDS011;11164;48.818;2.322;2022-08-05T02:53:37;14.57;;;5.65;;
21999;SDS011;11164;48.818;2.322;2022-08-05T02:56:04;9.95;;;4.63;;
21999;SDS011;11164;48.818;2.322;2022-08-05T02:58:32;10.32;;;4.65;;
21999;SDS011;11164;48.818;2.322;2022-08-05T03:00:59;9.85;;;5.82;;
21999;SDS011;11164;48.818;2.322;2022-08-05T03:03:26;11.85;;;5.40;;
21999;SDS011;11164;48.818;2.322;2022-08-05T03:05:53;10.23;;;4.78;;
21999;SDS011;11164;48.818;2.322;2022-08-05T03:08:20;11.43;;;4.50;;
21999;SDS011;11164;48.818;2.322;2022-08-05T03:10:46;10.23;;;4.35;;
21999;SDS011;11164;48.818;2.322;2022-08-05T03:13:13;16.50;;;4.85;;
21999;SDS011;11164;48.818;2.322;2022-08-05T03:15:41;10.73;;;4.88;;
21999;SDS011;11164;48.818;2.322;2022-08-05T03:18:10;7.45;;;4.20;;
21999;SDS011;11164;48.818;2.322;2022-08-05T03:20:36;8.27;;;4.07;;
21999;SDS011;11164;48.818;2.322;2022-08-05T03:23:03;10.88;;;4.78;;
21999;SDS011;11164;48.818;2.322;2022-08-05T03:25:31;8.60;;;4.07;;
21999;SDS011;11164;48.818;2.322;2022-08-05T03:28:02;12.00;;;4.53;;
21999;SDS011;11164;48.818;2.322;2022-08-05T03:30:29;10.13;;;5.05;;
21999;SDS011;11164;48.818;2.322;2022-08-05T03:32:59;9.45;;;4.65;;
21999;SDS011;11164;48.818;2.322;2022-08-05T03:35:26;11.00;;;4.50;;
21999;SDS011;11164;48.818;2.322;2022-08-05T03:37:54;9.95;;;4.55;;
21999;SDS011;11164;48.818;2.322;2022-08-05T03:40:24;8.95;;;3.72;;
21999;SDS011;11164;48.818;2.322;2022-08-05T03:42:49;7.50;;;4.00;;
21999;SDS011;11164;48.818;2.322;2022-08-05T03:45:15;9.82;;;4.30;;
21999;SDS011;11164;48.818;2.322;2022-08-05T03:47:42;5.93;;;3.50;;
21999;SDS011;11164;48.818;2.322;2022-08-05T03:50:07;9.30;;;3.70;;
21999;SDS011;11164;48.818;2.322;2022-08-05T03:52:34;8.10;;;4.32;;
21999;SDS011;11164;48.818;2.322;2022-08-05T03:55:07;8.65;;;4.20;;
21999;SDS011;11164;48.818;2.322;2022-08-05T03:57:35;7.20;;;4.00;;
21999;SDS011;11164;48.818;2.322;2022-08-05T04:02:31;8.75;;;3.80;;
21999;SDS011;11164;48.818;2.322;2022-08-05T04:05:00;8.07;;;4.18;;
21999;SDS011;11164;48.818;2.322;2022-08-05T04:07:26;7.15;;;3.95;;
21999;SDS011;11164;48.818;2.322;2022-08-05T04:09:53;7.35;;;3.85;;
21999;SDS011;11164;48.818;2.322;2022-08-05T04:12:19;8.93;;;4.25;;
21999;SDS011;11164;48.818;2.322;2022-08-05T04:14:45;8.80;;;4.45;;
21999;SDS011;11164;48.818;2.322;2022-08-05T04:17:11;9.32;;;4.60;;
21999;SDS011;11164;48.818;2.322;2022-08-05T04:19:40;8.25;;;4.20;;
21999;SDS011;11164;48.818;2.322;2022-08-05T04:22:07;7.53;;;3.55;;
21999;SDS011;11164;48.818;2.322;2022-08-05T04:24:33;11.20;;;4.00;;
21999;SDS011;11164;48.818;2.322;2022-08-05T04:26:58;7.95;;;4.00;;
21999;SDS011;11164;48.818;2.322;2022-08-05T04:29:23;9.68;;;3.88;;
21999;SDS011;11164;48.818;2.322;2022-08-05T04:31:49;9.02;;;3.90;;
21999;SDS011;11164;48.818;2.322;2022-08-05T04:34:14;7.35;;;3.50;;
21999;SDS011;11164;48.818;2.322;2022-08-05T04:36:39;8.77;;;3.83;;
21999;SDS011;11164;48.818;2.322;2022-08-05T04:39:05;10.52;;;4.07;;
21999;SDS011;11164;48.818;2.322;2022-08-05T04:41:30;7.85;;;3.47;;
21999;SDS011;11164;48.818;2.322;2022-08-05T04:43:56;8.00;;;3.85;;
21999;SDS011;11164;48.818;2.322;2022-08-05T04:46:21;10.48;;;3.45;;
21999;SDS011;11164;48.818;2.322;2022-08-05T04:48:47;9.07;;;4.28;;
21999;SDS011;11164;48.818;2.322;2022-08-05T04:51:12;11.48;;;4.53;;
21999;SDS011;11164;48.818;2.322;2022-08-05T04:53:38;8.15;;;4.63;;
21999;SDS011;11164;48.818;2.322;2022-08-05T04:56:04;10.88;;;3.80;;
21999;SDS011;11164;48.818;2.322;2022-08-05T04:58:32;11.40;;;4.40;;
21999;SDS011;11164;48.818;2.322;2022-08-05T05:00:58;10.68;;;4.25;;
21999;SDS011;11164;48.818;2.322;2022-08-05T05:03:23;9.45;;;4.63;;
21999;SDS011;11164;48.818;2.322;2022-08-05T05:05:48;8.52;;;4.30;;
21999;SDS011;11164;48.818;2.322;2022-08-05T05:08:14;12.13;;;4.50;;
21999;SDS011;11164;48.818;2.322;2022-08-05T05:10:43;9.40;;;4.75;;
21999;SDS011;11164;48.818;2.322;2022-08-05T05:13:11;12.52;;;4.32;;
21999;SDS011;11164;48.818;2.322;2022-08-05T05:15:39;9.15;;;4.03;;
21999;SDS011;11164;48.818;2.322;2022-08-05T05:18:05;8.68;;;4.10;;
21999;SDS011;11164;48.818;2.322;2022-08-05T05:20:31;9.77;;;4.13;;
21999;SDS011;11164;48.818;2.322;2022-08-05T05:22:59;11.13;;;4.05;;
21999;SDS011;11164;48.818;2.322;2022-08-05T05:25:26;11.15;;;4.10;;
21999;SDS011;11164;48.818;2.322;2022-08-05T05:27:52;9.88;;;3.95;;
21999;SDS011;11164;48.818;2.322;2022-08-05T05:30:17;8.98;;;3.95;;
21999;SDS011;11164;48.818;2.322;2022-08-05T05:32:43;11.57;;;3.55;;
21999;SDS011;11164;48.818;2.322;2022-08-05T05:35:09;9.60;;;3.58;;
21999;SDS011;11164;48.818;2.322;2022-08-05T05:37:50;7.53;;;3.63;;
21999;SDS011;11164;48.818;2.322;2022-08-05T05:40:24;9.13;;;3.40;;
21999;SDS011;11164;48.818;2.322;2022-08-05T05:42:51;10.65;;;3.88;;
21999;SDS011;11164;48.818;2.322;2022-08-05T05:45:17;8.73;;;3.60;;
21999;SDS011;11164;48.818;2.322;2022-08-05T05:47:43;8.15;;;3.53;;
21999;SDS011;11164;48.818;2.322;2022-08-05T05:50:10;6.63;;;3.40;;
21999;SDS011;11164;48.818;2.322;2022-08-05T05:52:36;9.00;;;3.53;;
21999;SDS011;11164;48.818;2.322;2022-08-05T05:55:03;8.48;;;3.03;;
21999;SDS011;11164;48.818;2.322;2022-08-05T05:57:32;8.95;;;3.50;;
21999;SDS011;11164;48.818;2.322;2022-08-05T05:59:58;5.80;;;2.92;;
21999;SDS011;11164;48.818;2.322;2022-08-05T06:02:23;7.38;;;3.15;;
21999;SDS011;11164;48.818;2.322;2022-08-05T06:04:51;8.00;;;3.22;;
21999;SDS011;11164;48.818;2.322;2022-08-05T06:07:16;9.13;;;3.70;;
21999;SDS011;11164;48.818;2.322;2022-08-05T06:09:42;6.18;;;2.97;;
21999;SDS011;11164;48.818;2.322;2022-08-05T06:12:07;10.80;;;3.30;;
21999;SDS011;11164;48.818;2.322;2022-08-05T06:14:33;8.90;;;3.38;;
21999;SDS011;11164;48.818;2.322;2022-08-05T06:16:58;10.45;;;3.28;;
21999;SDS011;11164;48.818;2.322;2022-08-05T06:19:24;9.77;;;3.15;;
21999;SDS011;11164;48.818;2.322;2022-08-05T06:21:50;9.68;;;3.22;;
21999;SDS011;11164;48.818;2.322;2022-08-05T06:24:15;10.18;;;3.20;;
21999;SDS011;11164;48.818;2.322;2022-08-05T06:26:41;10.98;;;3.20;;
21999;SDS011;11164;48.818;2.322;2022-08-05T06:29:06;9.75;;;3.20;;
21999;SDS011;11164;48.818;2.322;2022-08-05T06:31:32;10.48;;;2.95;;
21999;SDS011;11164;48.818;2.322;2022-08-05T06:33:57;9.40;;;3.20;;
21999;SDS011;11164;48.818;2.322;2022-08-05T06:36:23;10.10;;;2.88;;
21999;SDS011;11164;48.818;2.322;2022-08-05T06:38:48;10.05;;;2.90;;
21999;SDS011;11164;48.818;2.322;2022-08-05T06:41:17;6.78;;;3.17;;
21999;SDS011;11164;48.818;2.322;2022-08-05T06:43:43;7.97;;;2.92;;
21999;SDS011;11164;48.818;2.322;2022-08-05T06:46:09;9.73;;;3.30;;
21999;SDS011;11164;48.818;2.322;2022-08-05T06:48:34;12.18;;;3.72;;
21999;SDS011;11164;48.818;2.322;2022-08-05T06:51:00;9.40;;;3.60;;
21999;SDS011;11164;48.818;2.322;2022-08-05T06:53:26;6.88;;;3.60;;
21999;SDS011;11164;48.818;2.322;2022-08-05T06:55:52;8.73;;;3.20;;
21999;SDS011;11164;48.818;2.322;2022-08-05T06:58:17;8.77;;;3.30;;
21999;SDS011;11164;48.818;2.322;2022-08-05T07:00:43;11.73;;;3.28;;
21999;SDS011;11164;48.818;2.322;2022-08-05T07:03:08;9.65;;;3.80;;
21999;SDS011;11164;48.818;2.322;2022-08-05T07:05:33;10.77;;;3.80;;
21999;SDS011;11164;48.818;2.322;2022-08-05T07:07:59;9.63;;;3.63;;
21999;SDS011;11164;48.818;2.322;2022-08-05T07:10:24;9.50;;;3.65;;
21999;SDS011;11164;48.818;2.322;2022-08-05T07:12:49;9.18;;;3.75;;
21999;SDS011;11164;48.818;2.322;2022-08-05T07:15:33;6.80;;;3.40;;
21999;SDS011;11164;48.818;2.322;2022-08-05T07:18:17;13.82;;;3.35;;
21999;SDS011;11164;48.818;2.322;2022-08-05T07:20:43;9.65;;;3.97;;
21999;SDS011;11164;48.818;2.322;2022-08-05T07:23:08;9.48;;;3.65;;
21999;SDS011;11164;48.818;2.322;2022-08-05T07:25:33;7.13;;;3.30;;
21999;SDS011;11164;48.818;2.322;2022-08-05T07:27:59;8.65;;;3.30;;
21999;SDS011;11164;48.818;2.322;2022-08-05T07:30:24;10.27;;;3.45;;
21999;SDS011;11164;48.818;2.322;2022-08-05T07:32:51;8.93;;;3.45;;
21999;SDS011;11164;48.818;2.322;2022-08-05T07:35:16;11.18;;;3.33;;
21999;SDS011;11164;48.818;2.322;2022-08-05T07:37:41;7.65;;;3.05;;
21999;SDS011;11164;48.818;2.322;2022-08-05T07:40:07;6.82;;;3.05;;
21999;SDS011;11164;48.818;2.322;2022-08-05T07:42:34;13.50;;;3.95;;
21999;SDS011;11164;48.818;2.322;2022-08-05T07:44:59;7.30;;;3.17;;
21999;SDS011;11164;48.818;2.322;2022-08-05T07:47:25;7.13;;;2.88;;
21999;SDS011;11164;48.818;2.322;2022-08-05T07:49:50;8.27;;;3.60;;
21999;SDS011;11164;48.818;2.322;2022-08-05T07:52:16;10.52;;;3.30;;
21999;SDS011;11164;48.818;2.322;2022-08-05T07:54:43;8.98;;;3.42;;
21999;SDS011;11164;48.818;2.322;2022-08-05T07:57:08;9.98;;;3.40;;
21999;SDS011;11164;48.818;2.322;2022-08-05T07:59:33;9.02;;;4.25;;
21999;SDS011;11164;48.818;2.322;2022-08-05T08:01:59;9.07;;;3.60;;
21999;SDS011;11164;48.818;2.322;2022-08-05T08:04:26;9.05;;;3.65;;
21999;SDS011;11164;48.818;2.322;2022-08-05T08:06:51;7.47;;;3.30;;
21999;SDS011;11164;48.818;2.322;2022-08-05T08:09:17;8.35;;;3.33;;
21999;SDS011;11164;48.818;2.322;2022-08-05T08:11:42;11.68;;;3.53;;
21999;SDS011;11164;48.818;2.322;2022-08-05T08:14:07;8.48;;;3.40;;
21999;SDS011;11164;48.818;2.322;2022-08-05T08:16:33;9.02;;;3.25;;
21999;SDS011;11164;48.818;2.322;2022-08-05T08:18:58;9.57;;;3.35;;
21999;SDS011;11164;48.818;2.322;2022-08-05T08:21:24;11.50;;;3.30;;
21999;SDS011;11164;48.818;2.322;2022-08-05T08:23:49;8.50;;;3.17;;
21999;SDS011;11164;48.818;2.322;2022-08-05T08:26:15;9.18;;;3.10;;
21999;SDS011;11164;48.818;2.322;2022-08-05T08:28:40;8.80;;;2.95;;
21999;SDS011;11164;48.818;2.322;2022-08-05T08:31:05;11.40;;;3.33;;
21999;SDS011;11164;48.818;2.322;2022-08-05T08:33:31;7.75;;;2.78;;
21999;SDS011;11164;48.818;2.322;2022-08-05T08:35:57;10.88;;;3.25;;
21999;SDS011;11164;48.818;2.322;2022-08-05T08:38:22;11.93;;;3.30;;
21999;SDS011;11164;48.818;2.322;2022-08-05T08:40:47;11.50;;;3.25;;
21999;SDS011;11164;48.818;2.322;2022-08-05T08:43:13;10.40;;;3.30;;
21999;SDS011;11164;48.818;2.322;2022-08-05T08:45:41;7.75;;;3.40;;
21999;SDS011;11164;48.818;2.322;2022-08-05T08:48:09;10.15;;;3.60;;
21999;SDS011;11164;48.818;2.322;2022-08-05T08:50:38;7.72;;;3.20;;
21999;SDS011;11164;48.818;2.322;2022-08-05T08:53:06;9.52;;;3.10;;
21999;SDS011;11164;48.818;2.322;2022-08-05T08:55:34;8.15;;;2.80;;
21999;SDS011;11164;48.818;2.322;2022-08-05T08:58:02;6.45;;;2.90;;
21999;SDS011;11164;48.818;2.322;2022-08-05T09:00:28;5.55;;;2.80;;
21999;SDS011;11164;48.818;2.322;2022-08-05T09:02:54;9.35;;;3.65;;
21999;SDS011;11164;48.818;2.322;2022-08-05T09:05:22;9.68;;;3.45;;
21999;SDS011;11164;48.818;2.322;2022-08-05T09:07:49;7.97;;;2.90;;
21999;SDS011;11164;48.818;2.322;2022-08-05T09:10:16;9.65;;;2.70;;
21999;SDS011;11164;48.818;2.322;2022-08-05T09:12:41;9.23;;;3.05;;
21999;SDS011;11164;48.818;2.322;2022-08-05T09:15:07;8.18;;;3.47;;
21999;SDS011;11164;48.818;2.322;2022-08-05T09:17:36;8.93;;;2.47;;
21999;SDS011;11164;48.818;2.322;2022-08-05T09:20:03;6.82;;;2.60;;
21999;SDS011;11164;48.818;2.322;2022-08-05T09:22:38;7.65;;;2.78;;
21999;SDS011;11164;48.818;2.322;2022-08-05T09:25:28;6.10;;;2.53;;
21999;SDS011;11164;48.818;2.322;2022-08-05T09:27:55;7.90;;;2.97;;
21999;SDS011;11164;48.818;2.322;2022-08-05T09:30:20;9.90;;;3.42;;
21999;SDS011;11164;48.818;2.322;2022-08-05T09:32:46;7.22;;;3.00;;
21999;SDS011;11164;48.818;2.322;2022-08-05T09:35:13;10.35;;;3.03;;
21999;SDS011;11164;48.818;2.322;2022-08-05T09:37:50;8.68;;;2.88;;
21999;SDS011;11164;48.818;2.322;2022-08-05T09:40:32;9.25;;;2.75;;
21999;SDS011;11164;48.818;2.322;2022-08-05T09:43:05;7.47;;;3.03;;
21999;SDS011;11164;48.818;2.322;2022-08-05T09:45:38;7.70;;;3.13;;
21999;SDS011;11164;48.818;2.322;2022-08-05T09:48:17;8.70;;;2.90;;
21999;SDS011;11164;48.818;2.322;2022-08-05T09:50:50;9.77;;;3.90;;
21999;SDS011;11164;48.818;2.322;2022-08-05T09:53:17;6.28;;;2.80;;
21999;SDS011;11164;48.818;2.322;2022-08-05T09:55:42;12.40;;;3.30;;
21999;SDS011;11164;48.818;2.322;2022-08-05T09:58:11;8.50;;;3.42;;
21999;SDS011;11164;48.818;2.322;2022-08-05T10:00:39;8.05;;;4.53;;
21999;SDS011;11164;48.818;2.322;2022-08-05T10:03:15;8.90;;;3.65;;
21999;SDS011;11164;48.818;2.322;2022-08-05T10:05:41;8.70;;;3.83;;
21999;SDS011;11164;48.818;2.322;2022-08-05T10:08:06;8.10;;;4.00;;
21999;SDS011;11164;48.818;2.322;2022-08-05T10:10:35;8.30;;;3.60;;
21999;SDS011;11164;48.818;2.322;2022-08-05T10:13:00;10.05;;;4.22;;
21999;SDS011;11164;48.818;2.322;2022-08-05T10:15:36;6.63;;;3.50;;
21999;SDS011;11164;48.818;2.322;2022-08-05T10:18:16;10.95;;;4.72;;
21999;SDS011;11164;48.818;2.322;2022-08-05T10:20:47;9.85;;;4.72;;
21999;SDS011;11164;48.818;2.322;2022-08-05T10:23:18;13.75;;;4.07;;
21999;SDS011;11164;48.818;2.322;2022-08-05T10:25:46;9.15;;;4.85;;
21999;SDS011;11164;48.818;2.322;2022-08-05T10:28:12;10.68;;;4.70;;
21999;SDS011;11164;48.818;2.322;2022-08-05T10:30:38;9.57;;;4.47;;
21999;SDS011;11164;48.818;2.322;2022-08-05T10:33:04;11.10;;;4.95;;
21999;SDS011;11164;48.818;2.322;2022-08-05T10:35:30;10.20;;;5.10;;
21999;SDS011;11164;48.818;2.322;2022-08-05T10:37:57;10.55;;;4.32;;
21999;SDS011;11164;48.818;2.322;2022-08-05T10:40:30;8.98;;;4.35;;
21999;SDS011;11164;48.818;2.322;2022-08-05T10:44:01;8.45;;;3.80;;
21999;SDS011;11164;48.818;2.322;2022-08-05T10:46:03;8.63;;;4.28;;
21999;SDS011;11164;48.818;2.322;2022-08-05T10:48:40;8.23;;;4.22;;
21999;SDS011;11164;48.818;2.322;2022-08-05T10:51:11;8.65;;;3.70;;
21999;SDS011;11164;48.818;2.322;2022-08-05T10:53:40;7.22;;;3.40;;
21999;SDS011;11164;48.818;2.322;2022-08-05T10:56:20;7.10;;;3.35;;
21999;SDS011;11164;48.818;2.322;2022-08-05T11:06:24;9.18;;;3.78;;
21999;SDS011;11164;48.818;2.322;2022-08-05T11:09:09;7.72;;;3.20;;
21999;SDS011;11164;48.818;2.322;2022-08-05T11:11:39;7.15;;;2.83;;
21999;SDS011;11164;48.818;2.322;2022-08-05T11:14:06;6.20;;;2.95;;
21999;SDS011;11164;48.818;2.322;2022-08-05T11:16:32;6.15;;;2.88;;
21999;SDS011;11164;48.818;2.322;2022-08-05T11:21:55;8.32;;;3.00;;
21999;SDS011;11164;48.818;2.322;2022-08-05T11:24:44;7.53;;;3.10;;
21999;SDS011;11164;48.818;2.322;2022-08-05T11:27:28;7.00;;;2.45;;
21999;SDS011;11164;48.818;2.322;2022-08-05T11:29:58;6.95;;;3.30;;
21999;SDS011;11164;48.818;2.322;2022-08-05T11:32:25;8.73;;;2.70;;
21999;SDS011;11164;48.818;2.322;2022-08-05T11:34:52;9.05;;;2.90;;
21999;SDS011;11164;48.818;2.322;2022-08-05T11:43:26;8.80;;;3.20;;
21999;SDS011;11164;48.818;2.322;2022-08-05T11:45:53;6.45;;;3.00;;
21999;SDS011;11164;48.818;2.322;2022-08-05T11:48:19;7.13;;;2.85;;
21999;SDS011;11164;48.818;2.322;2022-08-05T11:50:46;8.52;;;2.78;;
21999;SDS011;11164;48.818;2.322;2022-08-05T11:53:13;6.43;;;3.00;;
21999;SDS011;11164;48.818;2.322;2022-08-05T11:55:51;8.23;;;3.15;;
21999;SDS011;11164;48.818;2.322;2022-08-05T11:58:28;5.63;;;2.55;;
21999;SDS011;11164;48.818;2.322;2022-08-05T12:01:13;4.60;;;2.70;;
21999;SDS011;11164;48.818;2.322;2022-08-05T12:06:15;9.07;;;3.10;;
21999;SDS011;11164;48.818;2.322;2022-08-05T12:08:50;8.85;;;2.50;;
21999;SDS011;11164;48.818;2.322;2022-08-05T12:11:20;8.40;;;2.72;;
21999;SDS011;11164;48.818;2.322;2022-08-05T12:13:59;8.88;;;2.97;;
21999;SDS011;11164;48.818;2.322;2022-08-05T12:16:35;10.40;;;3.22;;
21999;SDS011;11164;48.818;2.322;2022-08-05T12:19:03;7.35;;;3.35;;
21999;SDS011;11164;48.818;2.322;2022-08-05T12:21:30;9.60;;;2.90;;
21999;SDS011;11164;48.818;2.322;2022-08-05T12:24:01;10.80;;;2.80;;
21999;SDS011;11164;48.818;2.322;2022-08-05T12:32:03;9.88;;;2.80;;
21999;SDS011;11164;48.818;2.322;2022-08-05T12:34:33;8.50;;;2.85;;
21999;SDS011;11164;48.818;2.322;2022-08-05T12:37:01;6.53;;;2.75;;
21999;SDS011;11164;48.818;2.322;2022-08-05T12:39:36;7.03;;;2.47;;
21999;SDS011;11164;48.818;2.322;2022-08-05T12:42:14;6.18;;;2.17;;
21999;SDS011;11164;48.818;2.322;2022-08-05T12:44:42;7.53;;;2.40;;
21999;SDS011;11164;48.818;2.322;2022-08-05T12:47:09;6.32;;;2.40;;
21999;SDS011;11164;48.818;2.322;2022-08-05T12:52:54;8.93;;;2.25;;
21999;SDS011;11164;48.818;2.322;2022-08-05T12:55:24;4.97;;;2.00;;
21999;SDS011;11164;48.818;2.322;2022-08-05T12:57:52;7.18;;;1.95;;
21999;SDS011;11164;48.818;2.322;2022-08-05T13:00:19;5.03;;;2.30;;
21999;SDS011;11164;48.818;2.322;2022-08-05T13:02:46;6.03;;;2.00;;
21999;SDS011;11164;48.818;2.322;2022-08-05T13:05:11;4.18;;;2.00;;
21999;SDS011;11164;48.818;2.322;2022-08-05T13:07:38;6.93;;;2.00;;
21999;SDS011;11164;48.818;2.322;2022-08-05T13:10:09;6.68;;;2.17;;
21999;SDS011;11164;48.818;2.322;2022-08-05T13:12:44;5.22;;;2.20;;
21999;SDS011;11164;48.818;2.322;2022-08-05T13:15:10;6.07;;;2.03;;
21999;SDS011;11164;48.818;2.322;2022-08-05T13:17:37;4.15;;;1.83;;
21999;SDS011;11164;48.818;2.322;2022-08-05T13:20:04;6.55;;;1.85;;
21999;SDS011;11164;48.818;2.322;2022-08-05T13:22:32;5.90;;;2.25;;
21999;SDS011;11164;48.818;2.322;2022-08-05T13:25:04;5.70;;;2.10;;
21999;SDS011;11164;48.818;2.322;2022-08-05T13:27:36;4.85;;;2.08;;
21999;SDS011;11164;48.818;2.322;2022-08-05T13:30:10;4.93;;;2.47;;
21999;SDS011;11164;48.818;2.322;2022-08-05T13:32:37;5.45;;;2.30;;
21999;SDS011;11164;48.818;2.322;2022-08-05T13:35:04;4.75;;;2.08;;
21999;SDS011;11164;48.818;2.322;2022-08-05T13:37:30;5.93;;;1.88;;
21999;SDS011;11164;48.818;2.322;2022-08-05T13:39:56;5.35;;;2.10;;
21999;SDS011;11164;48.818;2.322;2022-08-05T13:42:22;3.58;;;1.70;;
21999;SDS011;11164;48.818;2.322;2022-08-05T13:44:51;6.88;;;2.08;;
21999;SDS011;11164;48.818;2.322;2022-08-05T13:47:18;5.55;;;1.98;;
21999;SDS011;11164;48.818;2.322;2022-08-05T13:49:43;7.47;;;1.90;;
21999;SDS011;11164;48.818;2.322;2022-08-05T13:52:09;4.50;;;1.77;;
21999;SDS011;11164;48.818;2.322;2022-08-05T13:54:36;6.32;;;1.90;;
21999;SDS011;11164;48.818;2.322;2022-08-05T13:57:02;5.72;;;1.63;;
21999;SDS011;11164;48.818;2.322;2022-08-05T13:59:28;3.60;;;1.60;;
21999;SDS011;11164;48.818;2.322;2022-08-05T14:01:54;5.93;;;1.75;;
21999;SDS011;11164;48.818;2.322;2022-08-05T14:04:20;6.10;;;1.58;;
21999;SDS011;11164;48.818;2.322;2022-08-05T14:09:29;5.57;;;1.60;;
21999;SDS011;11164;48.818;2.322;2022-08-05T14:11:56;5.68;;;1.90;;
21999;SDS011;11164;48.818;2.322;2022-08-05T14:14:23;5.07;;;1.60;;
21999;SDS011;11164;48.818;2.322;2022-08-05T14:16:48;7.63;;;1.90;;
21999;SDS011;11164;48.818;2.322;2022-08-05T14:19:15;7.38;;;1.90;;
21999;SDS011;11164;48.818;2.322;2022-08-05T14:21:41;4.93;;;2.00;;
21999;SDS011;11164;48.818;2.322;2022-08-05T14:24:06;5.47;;;1.70;;
21999;SDS011;11164;48.818;2.322;2022-08-05T14:26:35;5.25;;;1.70;;
21999;SDS011;11164;48.818;2.322;2022-08-05T14:29:01;4.78;;;1.73;;
21999;SDS011;11164;48.818;2.322;2022-08-05T14:31:26;7.72;;;1.80;;
21999;SDS011;11164;48.818;2.322;2022-08-05T14:33:52;4.70;;;3.00;;
21999;SDS011;11164;48.818;2.322;2022-08-05T14:36:18;4.45;;;1.88;;
21999;SDS011;11164;48.818;2.322;2022-08-05T14:38:43;5.15;;;1.77;;
21999;SDS011;11164;48.818;2.322;2022-08-05T14:41:08;4.77;;;1.60;;
21999;SDS011;11164;48.818;2.322;2022-08-05T14:43:35;9.02;;;1.75;;
21999;SDS011;11164;48.818;2.322;2022-08-05T14:46:00;6.75;;;1.83;;
21999;SDS011;11164;48.818;2.322;2022-08-05T14:48:26;4.63;;;1.65;;
21999;SDS011;11164;48.818;2.322;2022-08-05T14:50:51;4.20;;;1.55;;
21999;SDS011;11164;48.818;2.322;2022-08-05T14:53:16;5.30;;;1.73;;
21999;SDS011;11164;48.818;2.322;2022-08-05T14:55:42;8.93;;;1.85;;
21999;SDS011;11164;48.818;2.322;2022-08-05T14:58:08;4.22;;;1.60;;
21999;SDS011;11164;48.818;2.322;2022-08-05T15:00:34;5.50;;;1.92;;
21999;SDS011;11164;48.818;2.322;2022-08-05T15:02:59;3.92;;;1.40;;
21999;SDS011;11164;48.818;2.322;2022-08-05T15:05:25;4.93;;;1.60;;
21999;SDS011;11164;48.818;2.322;2022-08-05T15:07:51;4.45;;;1.77;;
21999;SDS011;11164;48.818;2.322;2022-08-05T15:10:16;5.60;;;1.60;;
21999;SDS011;11164;48.818;2.322;2022-08-05T15:12:42;4.53;;;1.58;;
21999;SDS011;11164;48.818;2.322;2022-08-05T15:15:07;4.95;;;1.50;;
21999;SDS011;11164;48.818;2.322;2022-08-05T15:17:33;7.57;;;1.42;;
21999;SDS011;11164;48.818;2.322;2022-08-05T15:19:59;5.65;;;1.30;;
21999;SDS011;11164;48.818;2.322;2022-08-05T15:22:25;3.05;;;1.42;;
21999;SDS011;11164;48.818;2.322;2022-08-05T15:24:50;5.72;;;1.60;;
21999;SDS011;11164;48.818;2.322;2022-08-05T15:27:16;3.90;;;1.33;;
21999;SDS011;11164;48.818;2.322;2022-08-05T15:29:41;4.17;;;1.40;;
21999;SDS011;11164;48.818;2.322;2022-08-05T15:32:06;3.65;;;1.40;;